Time;durP1;ratioP1;P1;durP2;ratioP2;P2;SDS_P1;SDS_P2;PMS_P1;PMS_P2;Temp;Humidity;BMP_temperature;BMP_pressure;BME280_temperature;BME280_humidity;BME280_pressure;Samples;Min_cycle;Max_cycle;Signal;HPM_P1;HPM_P2
2021/04/28 00:02:14;;;;;;;5.83;5.17;;;13.70;1.00;;;;;;4912742;29;21067;-80
2021/04/28 00:04:41;;;;;;;4.90;4.40;;;13.70;1.00;;;;;;4900814;29;20540;-84
2021/04/28 00:07:08;;;;;;;5.37;4.20;;;13.60;1.00;;;;;;4911131;29;20470;-81
2021/04/28 00:09:36;;;;;;;7.07;5.17;;;13.60;1.00;;;;;;4910161;29;20477;-83
2021/04/28 00:12:05;;;;;;;7.20;4.03;;;13.60;1.00;;;;;;4906160;29;20467;-81
2021/04/28 00:14:33;;;;;;;7.70;5.17;;;13.60;1.00;;;;;;4910906;29;20557;-82
2021/04/28 00:17:00;;;;;;;7.33;4.53;;;13.50;1.00;;;;;;4901679;29;20521;-79
2021/04/28 00:19:29;;;;;;;6.03;5.43;;;13.50;1.00;;;;;;4897445;29;20583;-82
2021/04/28 00:21:56;;;;;;;6.20;4.80;;;13.50;1.00;;;;;;4904818;29;20473;-82
2021/04/28 00:24:23;;;;;;;6.20;5.33;;;13.50;1.00;;;;;;4908059;29;20466;-85
2021/04/28 00:26:50;;;;;;;5.63;4.73;;;13.40;1.00;;;;;;4902272;29;20467;-82
2021/04/28 00:29:19;;;;;;;6.43;4.80;;;13.40;1.00;;;;;;4927383;29;20490;-84
2021/04/28 00:31:46;;;;;;;6.57;5.23;;;13.40;1.00;;;;;;4910716;29;20465;-85
2021/04/28 00:34:13;;;;;;;7.10;4.83;;;13.30;1.00;;;;;;4896542;29;20493;-81
2021/04/28 00:36:40;;;;;;;5.20;4.70;;;13.30;1.00;;;;;;4907435;29;20455;-80
2021/04/28 00:39:07;;;;;;;7.10;5.30;;;13.30;1.00;;;;;;4904069;29;20544;-83
2021/04/28 00:41:35;;;;;;;7.97;5.33;;;13.30;1.00;;;;;;4909020;29;20484;-80
2021/04/28 00:44:03;;;;;;;4.80;4.00;;;13.20;1.00;;;;;;4908956;29;20473;-85
2021/04/28 00:46:30;;;;;;;6.83;4.07;;;13.20;1.00;;;;;;4901491;29;20463;-77
2021/04/28 00:48:58;;;;;;;7.60;4.80;;;13.20;1.00;;;;;;4907559;29;20988;-82
2021/04/28 00:51:25;;;;;;;7.43;4.23;;;13.20;1.00;;;;;;4906509;29;20967;-80
2021/04/28 00:53:53;;;;;;;7.20;5.25;;;13.10;1.00;;;;;;4902238;29;20502;-78
2021/04/28 00:56:20;;;;;;;5.87;5.00;;;13.10;1.00;;;;;;4910669;29;20231;-84
2021/04/28 00:58:48;;;;;;;6.77;5.60;;;13.10;1.00;;;;;;4906709;29;20469;-85
2021/04/28 01:01:15;;;;;;;6.40;5.80;;;13.00;1.00;;;;;;4927613;29;20529;-83
2021/04/28 01:03:44;;;;;;;6.80;5.00;;;13.10;1.00;;;;;;4910728;29;21257;-81
2021/04/28 01:06:12;;;;;;;6.33;4.53;;;13.10;1.00;;;;;;4907584;29;20466;-85
2021/04/28 01:08:41;;;;;;;6.37;5.17;;;13.10;1.00;;;;;;4897340;29;20501;-81
2021/04/28 01:11:09;;;;;;;7.20;5.50;;;13.00;1.00;;;;;;4909126;29;21068;-81
2021/04/28 01:13:36;;;;;;;6.17;5.43;;;13.00;1.00;;;;;;4897772;29;20475;-81
2021/04/28 01:16:03;;;;;;;7.00;6.03;;;13.00;1.00;;;;;;4913464;29;20494;-85
2021/04/28 01:18:31;;;;;;;7.47;5.57;;;12.90;1.00;;;;;;4909237;29;20495;-84
2021/04/28 01:20:59;;;;;;;6.50;4.53;;;12.90;1.00;;;;;;4903951;29;20471;-83
2021/04/28 01:23:27;;;;;;;5.50;5.00;;;12.90;1.00;;;;;;4906989;29;20590;-82
2021/04/28 01:25:54;;;;;;;6.77;5.33;;;12.80;1.00;;;;;;4906304;29;20526;-85
2021/04/28 01:28:23;;;;;;;7.13;5.00;;;12.80;1.00;;;;;;4903840;29;21000;-80
2021/04/28 01:30:55;;;;;;;6.93;5.20;;;12.80;1.00;;;;;;4910436;29;20879;-79
2021/04/28 01:33:26;;;;;;;6.90;4.43;;;12.80;1.00;;;;;;4908667;29;20576;-81
2021/04/28 01:35:56;;;;;;;7.33;6.20;;;12.80;1.00;;;;;;4900294;29;20555;-80
2021/04/28 01:38:28;;;;;;;7.00;5.00;;;12.80;1.00;;;;;;4908275;29;20577;-81
2021/04/28 01:40:56;;;;;;;6.70;5.60;;;12.70;1.00;;;;;;4908817;29;20832;-85
2021/04/28 01:43:24;;;;;;;5.03;4.53;;;12.70;1.00;;;;;;4919820;29;21134;-81
2021/04/28 01:45:54;;;;;;;5.13;4.63;;;12.70;1.00;;;;;;4905540;29;20465;-84
2021/04/28 01:48:21;;;;;;;6.70;4.70;;;12.70;1.00;;;;;;4902193;29;20851;-86
2021/04/28 01:50:51;;;;;;;5.67;4.87;;;12.60;1.00;;;;;;4906715;29;20455;-82
2021/04/28 01:53:22;;;;;;;7.03;4.93;;;12.60;1.00;;;;;;4905815;29;20467;-79
2021/04/28 01:55:53;;;;;;;5.93;4.23;;;12.60;1.00;;;;;;4897449;29;20555;-83
2021/04/28 01:58:23;;;;;;;5.73;4.73;;;12.60;1.00;;;;;;4920082;29;21184;-77
2021/04/28 02:00:51;;;;;;;5.77;5.13;;;12.50;1.00;;;;;;4912690;29;20462;-81
2021/04/28 02:03:21;;;;;;;6.00;4.50;;;12.50;1.00;;;;;;4906880;29;20496;-87
2021/04/28 02:05:49;;;;;;;7.20;4.63;;;12.50;1.00;;;;;;4905247;29;20873;-79
2021/04/28 02:08:16;;;;;;;6.30;4.73;;;12.50;1.00;;;;;;4908071;29;20553;-81
2021/04/28 02:10:43;;;;;;;7.63;4.43;;;12.50;1.00;;;;;;4909296;29;20456;-79
2021/04/28 02:13:14;;;;;;;4.50;4.10;;;12.50;1.00;;;;;;4911400;29;20473;-84
2021/04/28 02:15:41;;;;;;;5.67;4.93;;;12.40;1.00;;;;;;4901592;29;21014;-79
2021/04/28 02:18:09;;;;;;;5.20;4.80;;;12.30;1.00;;;;;;4905601;29;20465;-80
2021/04/28 02:20:38;;;;;;;6.53;5.10;;;12.30;1.00;;;;;;4906160;29;21039;-82
2021/04/28 02:23:06;;;;;;;5.07;4.57;;;12.30;1.00;;;;;;4905638;29;20504;-79
2021/04/28 02:25:34;;;;;;;5.90;4.67;;;12.40;1.00;;;;;;4907065;29;20456;-82
2021/04/28 02:28:02;;;;;;;6.83;5.33;;;12.40;1.00;;;;;;4924430;29;21056;-81
2021/04/28 02:30:32;;;;;;;6.90;5.87;;;12.40;1.00;;;;;;4902598;29;20985;-85
2021/04/28 02:32:59;;;;;;;11.40;5.43;;;12.30;1.00;;;;;;4907557;29;20459;-83
2021/04/28 02:35:27;;;;;;;6.67;5.60;;;12.20;1.00;;;;;;4907657;29;21010;-82
2021/04/28 02:38:04;;;;;;;7.03;5.70;;;12.20;1.00;;;;;;4896440;29;20500;-82
2021/04/28 02:40:31;;;;;;;5.30;4.80;;;12.20;1.00;;;;;;4898036;29;20464;-83
2021/04/28 02:42:59;;;;;;;5.37;4.77;;;12.20;1.00;;;;;;4901805;29;20493;-83
2021/04/28 02:45:27;;;;;;;9.27;5.80;;;12.20;1.00;;;;;;4903717;29;20883;-85
2021/04/28 02:47:55;;;;;;;5.20;4.70;;;12.20;1.00;;;;;;4904900;29;20472;-79
2021/04/28 02:50:25;;;;;;;7.97;5.03;;;12.20;1.00;;;;;;4897002;29;20553;-81
2021/04/28 02:52:54;;;;;;;6.70;4.93;;;12.20;1.00;;;;;;4918891;29;21060;-84
2021/04/28 02:55:21;;;;;;;4.93;4.53;;;12.10;1.00;;;;;;4903963;29;20467;-81
2021/04/28 02:57:51;;;;;;;6.07;5.47;;;12.10;1.00;;;;;;4906768;29;20478;-85
2021/04/28 03:00:21;;;;;;;5.10;4.57;;;12.30;1.00;;;;;;4900297;29;20476;-82
2021/04/28 03:02:49;;;;;;;8.20;4.50;;;12.10;1.00;;;;;;4907932;29;20482;-82
2021/04/28 03:05:19;;;;;;;5.23;4.73;;;12.00;1.00;;;;;;4901982;29;20519;-81
2021/04/28 03:07:46;;;;;;;6.00;4.50;;;12.00;1.00;;;;;;4908112;29;20454;-83
2021/04/28 03:10:14;;;;;;;6.60;5.50;;;12.00;1.00;;;;;;4903455;29;20489;-83
2021/04/28 03:12:43;;;;;;;5.27;4.50;;;12.00;1.00;;;;;;4904107;29;20524;-78
2021/04/28 03:15:13;;;;;;;193.73;80.67;;;12.00;1.00;;;;;;4912196;29;20466;-81
2021/04/28 03:17:48;;;;;;;16.83;10.90;;;12.00;1.00;;;;;;4905394;29;20480;-79
2021/04/28 03:20:18;;;;;;;6.30;5.30;;;11.90;1.00;;;;;;4903637;29;20483;-84
2021/04/28 03:22:46;;;;;;;6.83;4.90;;;11.80;1.00;;;;;;4912749;29;20571;-79
2021/04/28 03:25:14;;;;;;;6.73;5.40;;;11.70;1.00;;;;;;4902690;29;20470;-82
2021/04/28 03:27:41;;;;;;;8.63;6.20;;;11.80;1.00;;;;;;4904952;29;20491;-80
2021/04/28 03:30:10;;;;;;;7.27;6.10;;;11.80;1.00;;;;;;4913920;29;20518;-87
2021/04/28 03:32:38;;;;;;;5.97;5.47;;;11.80;1.00;;;;;;4907597;29;20460;-87
2021/04/28 03:35:07;;;;;;;9.90;5.30;;;11.80;1.00;;;;;;4923503;29;20559;-79
2021/04/28 03:37:37;;;;;;;8.83;5.47;;;11.70;1.00;;;;;;4905735;29;20494;-83
2021/04/28 03:40:05;;;;;;;9.73;6.00;;;11.60;1.00;;;;;;4922331;29;20502;-79
2021/04/28 03:42:32;;;;;;;8.97;5.27;;;11.70;1.00;;;;;;4909205;29;20536;-83
2021/04/28 03:44:59;;;;;;;7.00;5.60;;;11.70;1.00;;;;;;4908690;29;20456;-88
2021/04/28 03:47:26;;;;;;;8.10;4.60;;;11.70;1.00;;;;;;4909083;29;20225;-78
2021/04/28 03:49:54;;;;;;;7.67;5.10;;;11.70;1.00;;;;;;4897580;29;20510;-77
2021/04/28 03:52:21;;;;;;;7.80;5.40;;;11.80;1.00;;;;;;4910591;29;20468;-84
2021/04/28 03:54:49;;;;;;;6.40;5.20;;;11.70;1.00;;;;;;4905784;29;20199;-81
2021/04/28 03:57:16;;;;;;;5.13;4.47;;;11.70;1.00;;;;;;4905582;29;20500;-80
2021/04/28 03:59:43;;;;;;;7.27;4.80;;;11.70;1.00;;;;;;4912568;29;20495;-79
2021/04/28 04:02:10;;;;;;;6.50;5.37;;;11.60;1.00;;;;;;4905328;29;20504;-83
2021/04/28 04:04:38;;;;;;;6.47;4.70;;;11.60;1.00;;;;;;4904960;29;20468;-80
2021/04/28 04:07:06;;;;;;;5.80;5.20;;;11.60;1.00;;;;;;4912200;29;20454;-86
2021/04/28 04:09:33;;;;;;;6.97;5.00;;;11.60;1.00;;;;;;4910840;29;20497;-80
2021/04/28 04:12:01;;;;;;;7.53;4.90;;;11.60;1.00;;;;;;4901760;29;20468;-76
2021/04/28 04:14:29;;;;;;;5.93;4.97;;;11.50;1.00;;;;;;4909287;29;20468;-74
2021/04/28 04:16:56;;;;;;;11.20;5.50;;;11.50;1.00;;;;;;4911735;29;20493;-78
2021/04/28 04:19:23;;;;;;;5.77;4.30;;;11.60;1.00;;;;;;4910938;29;20494;-81
2021/04/28 04:21:50;;;;;;;8.27;5.60;;;11.50;1.00;;;;;;4900408;29;20463;-82
2021/04/28 04:24:18;;;;;;;6.33;4.70;;;11.40;1.00;;;;;;4910975;29;20466;-86
2021/04/28 04:26:45;;;;;;;5.67;4.90;;;11.40;1.00;;;;;;4909045;29;20699;-80
2021/04/28 04:29:13;;;;;;;6.73;5.20;;;11.30;1.00;;;;;;4898008;29;21242;-80
2021/04/28 04:31:40;;;;;;;6.33;4.67;;;11.30;1.00;;;;;;4912262;29;20469;-81
2021/04/28 04:34:07;;;;;;;7.80;5.40;;;11.40;1.00;;;;;;4902718;29;20560;-83
2021/04/28 04:36:35;;;;;;;5.43;4.93;;;11.40;1.00;;;;;;4908013;29;20494;-79
2021/04/28 04:39:02;;;;;;;5.37;4.83;;;11.30;1.00;;;;;;4908909;29;20543;-78
2021/04/28 04:41:29;;;;;;;6.23;5.63;;;11.40;1.00;;;;;;4909515;29;20461;-80
2021/04/28 04:43:57;;;;;;;7.50;5.30;;;11.40;1.00;;;;;;4914179;29;20522;-80
2021/04/28 04:46:25;;;;;;;9.63;6.13;;;11.40;1.00;;;;;;4909266;29;20465;-79
2021/04/28 04:48:52;;;;;;;8.60;5.60;;;11.30;1.00;;;;;;4904723;29;20487;-81
2021/04/28 04:51:19;;;;;;;9.03;5.43;;;11.30;1.00;;;;;;4909709;29;20535;-79
2021/04/28 04:53:46;;;;;;;8.50;6.20;;;11.40;1.00;;;;;;4906471;29;20505;-78
2021/04/28 04:56:14;;;;;;;8.00;6.70;;;11.50;1.00;;;;;;4906754;29;20496;-80
2021/04/28 04:58:41;;;;;;;11.33;6.67;;;11.50;1.00;;;;;;4913110;29;20527;-79
2021/04/28 05:01:08;;;;;;;12.13;7.43;;;11.50;1.00;;;;;;4907380;29;21191;-79
2021/04/28 05:03:36;;;;;;;12.83;9.17;;;11.30;1.00;;;;;;4897681;29;20472;-79
2021/04/28 05:06:03;;;;;;;11.90;8.43;;;11.30;1.00;;;;;;4905678;29;20528;-86
2021/04/28 05:08:31;;;;;;;8.00;6.33;;;11.30;1.00;;;;;;4905752;29;21206;-85
2021/04/28 05:10:58;;;;;;;12.03;8.13;;;11.40;1.00;;;;;;4917465;29;20457;-85
2021/04/28 05:13:25;;;;;;;11.02;7.93;;;11.50;1.00;;;;;;4908268;29;20485;-83
2021/04/28 05:15:52;;;;;;;11.93;7.57;;;11.50;1.00;;;;;;4903819;29;20217;-80
2021/04/28 05:18:19;;;;;;;9.73;7.33;;;11.60;1.00;;;;;;4910023;29;20555;-82
2021/04/28 05:20:47;;;;;;;13.60;6.80;;;11.70;1.00;;;;;;4909832;29;20466;-78
2021/04/28 05:23:15;;;;;;;14.43;6.50;;;11.70;1.00;;;;;;4903560;29;20503;-80
2021/04/28 05:25:42;;;;;;;9.80;6.40;;;11.70;1.00;;;;;;4902866;29;20525;-81
2021/04/28 05:28:09;;;;;;;8.37;7.07;;;11.80;1.00;;;;;;4903220;29;21021;-83
2021/04/28 05:30:36;;;;;;;10.20;7.30;;;11.70;1.00;;;;;;4904220;29;20457;-80
2021/04/28 05:33:05;;;;;;;11.33;7.63;;;11.80;1.00;;;;;;4905108;29;20524;-80
2021/04/28 05:35:32;;;;;;;8.83;6.90;;;11.80;1.00;;;;;;4901801;29;20477;-79
2021/04/28 05:38:00;;;;;;;16.40;7.60;;;11.80;1.00;;;;;;4903737;29;21017;-79
2021/04/28 05:40:28;;;;;;;10.60;7.60;;;11.90;1.00;;;;;;4902287;29;20462;-81
2021/04/28 05:42:56;;;;;;;9.10;7.00;;;11.90;1.00;;;;;;4904123;29;20457;-79
2021/04/28 05:45:23;;;;;;;13.40;8.20;;;11.90;1.00;;;;;;4900575;29;20461;-78
2021/04/28 05:47:50;;;;;;;7.80;7.00;;;12.00;1.00;;;;;;4900732;29;20993;-79
2021/04/28 05:50:18;;;;;;;10.93;8.23;;;12.10;1.00;;;;;;4898076;29;20450;-78
2021/04/28 05:52:46;;;;;;;13.10;8.60;;;12.10;1.00;;;;;;4898098;29;20236;-80
2021/04/28 05:55:14;;;;;;;16.87;10.33;;;12.40;1.00;;;;;;4905766;29;20468;-80
2021/04/28 05:57:41;;;;;;;21.33;13.10;;;12.30;1.00;;;;;;4895423;29;20496;-80
2021/04/28 06:00:11;;;;;;;23.43;12.57;;;12.30;1.00;;;;;;4898812;29;20484;-79
2021/04/28 06:02:38;;;;;;;18.80;10.77;;;12.40;1.00;;;;;;4906190;29;20505;-80
2021/04/28 06:05:06;;;;;;;12.70;9.10;;;12.50;1.00;;;;;;4894132;29;21243;-81
2021/04/28 06:07:34;;;;;;;13.80;8.83;;;12.60;1.00;;;;;;4899327;29;20472;-78
2021/04/28 06:10:01;;;;;;;11.07;7.50;;;12.70;1.00;;;;;;4900352;29;20503;-80
2021/04/28 06:12:29;;;;;;;15.47;8.53;;;12.90;1.00;;;;;;4895765;29;20467;-80
2021/04/28 06:14:56;;;;;;;13.40;9.43;;;12.90;1.00;;;;;;4896164;29;20520;-80
2021/04/28 06:17:23;;;;;;;14.90;10.27;;;13.00;1.00;;;;;;4893365;29;20539;-80
2021/04/28 06:19:51;;;;;;;15.37;9.00;;;13.10;1.00;;;;;;4893116;29;20487;-80
2021/04/28 06:22:18;;;;;;;11.13;8.20;;;13.30;1.00;;;;;;4895830;29;20447;-79
2021/04/28 06:24:45;;;;;;;9.20;6.70;;;13.50;1.00;;;;;;4891004;29;20463;-81
2021/04/28 06:27:12;;;;;;;9.97;7.20;;;13.80;1.00;;;;;;4889578;29;21227;-77
2021/04/28 06:29:45;;;;;;;9.63;6.87;;;14.10;1.00;;;;;;4901655;29;20488;-80
2021/04/28 06:32:12;;;;;;;8.50;7.60;;;14.50;1.00;;;;;;4896417;29;20465;-81
2021/04/28 06:34:40;;;;;;;10.43;6.33;;;14.90;1.00;;;;;;4892123;29;20473;-79
2021/04/28 06:37:07;;;;;;;8.10;6.70;;;15.20;1.00;;;;;;4894854;29;20533;-77
2021/04/28 06:39:34;;;;;;;9.30;6.80;;;15.50;1.00;;;;;;4892505;29;21378;-78
2021/04/28 06:42:01;;;;;;;10.63;6.20;;;15.80;1.00;;;;;;4894685;29;20477;-80
2021/04/28 06:44:30;;;;;;;7.70;6.30;;;16.00;1.00;;;;;;4893178;29;20571;-80
2021/04/28 06:46:58;;;;;;;7.13;6.40;;;16.20;1.00;;;;;;4894179;29;20467;-80
2021/04/28 06:49:25;;;;;;;6.70;5.90;;;16.50;1.00;;;;;;4907092;29;20490;-80
2021/04/28 06:51:52;;;;;;;12.00;6.80;;;16.80;1.00;;;;;;4893768;29;20476;-80
2021/04/28 06:54:19;;;;;;;8.13;6.20;;;16.90;1.00;;;;;;4890933;29;20474;-80
2021/04/28 06:56:47;;;;;;;8.97;6.70;;;17.10;1.00;;;;;;4893478;29;20483;-83
2021/04/28 06:59:16;;;;;;;9.87;6.57;;;17.30;1.00;;;;;;4894980;29;20565;-84
2021/04/28 07:01:45;;;;;;;7.97;7.03;;;17.70;1.00;;;;;;4900167;29;21393;-81
2021/04/28 07:04:13;;;;;;;7.87;6.13;;;18.00;9.90;;;;;;4899345;29;20547;-81
2021/04/28 07:06:41;;;;;;;9.70;6.57;;;18.00;1.00;;;;;;4895539;29;20494;-84
2021/04/28 07:09:08;;;;;;;10.20;6.73;;;18.10;1.00;;;;;;4902575;29;20601;-84
2021/04/28 07:11:35;;;;;;;9.40;7.80;;;18.30;1.30;;;;;;4898616;29;20469;-83
2021/04/28 07:14:02;;;;;;;9.10;7.50;;;18.30;1.00;;;;;;4903129;29;20464;-84
2021/04/28 07:16:29;;;;;;;9.60;7.47;;;18.40;1.50;;;;;;4914240;29;20845;-81
2021/04/28 07:18:57;;;;;;;8.57;7.70;;;18.50;1.90;;;;;;4896516;29;20587;-86
2021/04/28 07:21:25;;;;;;;10.57;7.33;;;18.90;3.80;;;;;;4898192;29;20472;-79
2021/04/28 07:23:52;;;;;;;9.50;8.07;;;19.10;6.30;;;;;;4892799;29;20638;-78
2021/04/28 07:26:19;;;;;;;8.93;6.97;;;19.10;5.80;;;;;;4898165;29;20456;-80
2021/04/28 07:28:49;;;;;;;8.93;7.97;;;19.00;5.40;;;;;;4896372;29;20481;-79
2021/04/28 07:31:17;;;;;;;10.17;7.90;;;19.30;7.70;;;;;;4898471;29;20480;-80
2021/04/28 07:33:45;;;;;;;8.93;6.57;;;19.60;9.70;;;;;;4894824;29;21005;-81
2021/04/28 07:36:12;;;;;;;8.13;7.03;;;19.80;11.20;;;;;;4899135;29;20457;-82
2021/04/28 07:38:41;;;;;;;7.73;6.80;;;19.80;11.20;;;;;;4899042;29;20834;-79
2021/04/28 07:41:09;;;;;;;13.50;7.87;;;19.80;12.80;;;;;;4903760;29;20465;-83
2021/04/28 07:43:37;;;;;;;9.67;7.60;;;19.80;11.50;;;;;;4897168;29;20807;-79
2021/04/28 07:46:04;;;;;;;12.57;8.47;;;19.60;10.80;;;;;;4901643;29;20525;-83
2021/04/28 07:48:32;;;;;;;13.37;9.43;;;19.50;9.70;;;;;;4896502;29;20487;-79
2021/04/28 07:51:00;;;;;;;11.03;8.80;;;19.30;8.40;;;;;;4901806;29;20568;-79
2021/04/28 07:53:28;;;;;;;15.73;9.47;;;19.20;6.60;;;;;;4910044;29;20488;-79
2021/04/28 07:55:56;;;;;;;16.53;9.67;;;19.20;7.40;;;;;;4900270;29;20470;-78
2021/04/28 07:58:23;;;;;;;10.90;8.03;;;19.10;6.80;;;;;;4893742;29;20481;-79
2021/04/28 08:00:51;;;;;;;9.80;7.70;;;19.00;7.80;;;;;;4899859;29;20546;-79
2021/04/28 08:03:18;;;;;;;8.73;7.23;;;18.80;4.70;;;;;;4900914;29;20551;-77
2021/04/28 08:05:45;;;;;;;11.43;7.90;;;18.70;4.00;;;;;;4901199;29;20465;-78
2021/04/28 08:08:12;;;;;;;13.97;10.23;;;18.60;3.60;;;;;;4899797;29;20464;-79
2021/04/28 08:10:39;;;;;;;10.20;7.43;;;18.60;3.80;;;;;;4896881;29;21025;-78
2021/04/28 08:13:09;;;;;;;10.90;8.50;;;18.60;2.80;;;;;;4900909;29;21477;-78
2021/04/28 08:15:37;;;;;;;14.43;9.00;;;18.60;2.80;;;;;;4913488;29;20491;-79
2021/04/28 08:18:04;;;;;;;12.80;8.97;;;18.50;3.10;;;;;;4900607;29;20553;-78
2021/04/28 08:20:31;;;;;;;10.30;8.33;;;18.50;2.10;;;;;;4911153;29;20501;-77
2021/04/28 08:22:59;;;;;;;11.07;8.67;;;18.50;2.10;;;;;;4893281;29;20465;-78
2021/04/28 08:25:26;;;;;;;11.47;8.57;;;18.50;3.60;;;;;;4903081;29;20516;-79
2021/04/28 08:27:54;;;;;;;8.90;7.20;;;18.50;2.20;;;;;;4895326;29;20469;-77
2021/04/28 08:30:22;;;;;;;11.83;9.03;;;18.50;2.00;;;;;;4893345;29;20472;-78
2021/04/28 08:33:09;;;;;;;11.20;8.10;;;18.50;1.70;;;;;;4898858;29;20473;-78
2021/04/28 08:35:37;;;;;;;8.70;6.60;;;18.50;1.00;;;;;;4899615;29;20459;-79
2021/04/28 08:38:04;;;;;;;12.17;8.37;;;18.60;3.00;;;;;;4903034;29;20484;-78
2021/04/28 08:40:32;;;;;;;8.37;6.77;;;18.70;3.60;;;;;;4905736;29;20469;-82
2021/04/28 08:42:59;;;;;;;9.53;6.73;;;18.80;5.20;;;;;;4918107;29;20547;-80
2021/04/28 08:45:28;;;;;;;9.20;5.90;;;18.80;14.10;;;;;;4903429;29;20708;-79
2021/04/28 08:47:55;;;;;;;10.67;6.50;;;18.90;6.90;;;;;;4915028;29;20457;-82
2021/04/28 08:50:22;;;;;;;8.30;6.00;;;19.00;7.40;;;;;;4899869;29;20465;-80
2021/04/28 08:52:52;;;;;;;9.90;6.67;;;19.10;7.20;;;;;;4901670;29;20466;-80
2021/04/28 08:55:20;;;;;;;12.23;6.10;;;19.10;6.40;;;;;;4902235;29;20464;-79
2021/04/28 08:57:47;;;;;;;6.43;5.30;;;19.10;3.80;;;;;;4904969;29;21001;-83
2021/04/28 09:00:16;;;;;;;4.93;4.27;;;19.10;4.60;;;;;;4908702;29;20482;-82
2021/04/28 09:02:55;;;;;;;6.23;4.30;;;19.10;3.40;;;;;;4920494;29;20454;-83
2021/04/28 09:05:23;;;;;;;7.60;5.10;;;19.20;4.20;;;;;;4914820;29;20878;-80
2021/04/28 09:07:50;;;;;;;7.30;5.17;;;19.20;3.30;;;;;;4909836;29;21066;-82
2021/04/28 09:10:20;;;;;;;6.90;4.93;;;19.30;4.50;;;;;;4917510;29;20477;-83
2021/04/28 09:12:53;;;;;;;5.03;4.43;;;19.30;2.40;;;;;;4910952;29;20473;-84
2021/04/28 09:15:34;;;;;;;5.47;4.70;;;19.20;1.00;;;;;;4907392;29;20458;-81
2021/04/28 09:18:04;;;;;;;3.07;2.77;;;19.20;1.00;;;;;;4907856;29;20492;-81
2021/04/28 09:20:33;;;;;;;5.03;3.30;;;19.30;1.00;;;;;;4899899;29;20469;-80
2021/04/28 09:23:11;;;;;;;6.33;4.00;;;19.50;1.60;;;;;;4903878;29;20956;-81
2021/04/28 09:25:42;;;;;;;4.90;4.10;;;19.50;1.00;;;;;;4897234;29;20450;-81
2021/04/28 09:28:28;;;;;;;4.70;3.67;;;19.50;1.00;;;;;;4906106;29;20462;-83
2021/04/28 09:31:18;;;;;;;6.37;4.03;;;19.50;1.00;;;;;;4900078;29;20465;-82
2021/04/28 09:33:52;;;;;;;7.60;4.67;;;19.40;1.00;;;;;;4908095;29;20494;-81
2021/04/28 09:36:34;;;;;;;3.50;3.20;;;19.50;1.00;;;;;;4897733;29;20461;-79
2021/04/28 09:39:05;;;;;;;3.37;3.13;;;19.60;1.00;;;;;;4904625;29;20490;-81
2021/04/28 09:41:38;;;;;;;6.53;4.60;;;19.60;1.00;;;;;;4901470;29;20472;-79
2021/04/28 09:44:27;;;;;;;6.33;4.23;;;19.50;7.80;;;;;;4899919;29;20464;-82
2021/04/28 09:47:01;;;;;;;4.20;3.60;;;19.60;1.00;;;;;;4900210;29;20477;-81
2021/04/28 09:49:48;;;;;;;6.27;3.47;;;19.60;1.00;;;;;;4898624;29;20473;-82
2021/04/28 09:52:17;;;;;;;5.07;3.40;;;19.70;1.00;;;;;;4901928;29;20453;-79
2021/04/28 09:54:45;;;;;;;4.40;3.93;;;19.70;1.00;;;;;;4898536;29;20460;-82
2021/04/28 09:57:16;;;;;;;5.57;4.13;;;19.80;1.00;;;;;;4902028;29;20517;-82
2021/04/28 09:59:48;;;;;;;3.77;3.30;;;19.80;1.20;;;;;;4901158;29;20533;-80
2021/04/28 10:02:25;;;;;;;7.03;3.90;;;19.80;1.10;;;;;;4903745;29;20458;-81
2021/04/28 10:05:14;;;;;;;3.80;3.00;;;19.80;1.20;;;;;;4898957;29;21131;-82
2021/04/28 10:07:41;;;;;;;5.57;3.40;;;19.90;1.80;;;;;;4901104;29;20461;-83
2021/04/28 10:10:10;;;;;;;4.63;3.30;;;20.00;3.30;;;;;;4904687;29;20489;-82
2021/04/28 10:12:37;;;;;;;3.03;2.73;;;20.10;2.70;;;;;;4903245;29;20473;-80
2021/04/28 10:15:05;;;;;;;3.53;2.70;;;20.20;5.20;;;;;;4903481;29;20470;-82
2021/04/28 10:17:35;;;;;;;4.63;3.27;;;20.30;5.80;;;;;;4905658;29;20494;-82
2021/04/28 10:20:05;;;;;;;4.57;3.00;;;20.30;4.00;;;;;;4917443;29;20494;-83
2021/04/28 10:22:34;;;;;;;4.00;2.70;;;20.20;2.60;;;;;;4902471;29;20474;-82
2021/04/28 10:25:05;;;;;;;2.60;1.90;;;20.20;3.20;;;;;;4899686;29;20826;-81
2021/04/28 10:27:33;;;;;;;4.07;2.40;;;20.10;1.00;;;;;;4901166;29;20462;-82
2021/04/28 10:30:00;;;;;;;3.30;2.20;;;20.00;1.00;;;;;;4900716;29;20465;-80
2021/04/28 10:32:28;;;;;;;4.10;2.57;;;20.00;1.00;;;;;;4895932;29;20730;-81
2021/04/28 10:34:59;;;;;;;5.57;2.57;;;20.10;1.20;;;;;;4903530;29;20470;-83
2021/04/28 10:37:29;;;;;;;3.87;2.37;;;20.10;1.00;;;;;;4902149;29;20478;-82
2021/04/28 10:39:57;;;;;;;3.23;2.93;;;20.10;1.70;;;;;;4901614;29;20531;-79
2021/04/28 10:42:33;;;;;;;3.57;2.60;;;20.20;2.00;;;;;;4902932;29;20504;-79
2021/04/28 10:45:01;;;;;;;4.07;2.80;;;20.30;3.20;;;;;;4901740;29;20997;-79
2021/04/28 10:47:35;;;;;;;4.53;2.73;;;20.30;2.80;;;;;;4900937;29;20809;-82
2021/04/28 10:50:12;;;;;;;3.47;2.07;;;20.30;1.70;;;;;;4900509;29;20469;-79
2021/04/28 10:52:44;;;;;;;5.03;2.50;;;20.30;2.10;;;;;;4900203;29;20500;-78
2021/04/28 10:55:38;;;;;;;2.80;2.60;;;20.30;2.70;;;;;;4899805;29;20973;-80
2021/04/28 10:58:49;;;;;;;2.73;2.10;;;20.20;2.40;;;;;;4900816;29;20482;-79
2021/04/28 11:01:21;;;;;;;5.27;3.10;;;20.40;4.80;;;;;;4900573;29;20453;-78
2021/04/28 11:03:50;;;;;;;3.93;3.30;;;20.60;5.60;;;;;;4903219;29;20494;-79
2021/04/28 11:06:49;;;;;;;5.87;3.77;;;20.60;6.70;;;;;;4904152;29;20528;-80
2021/04/28 11:09:21;;;;;;;3.43;3.00;;;20.60;7.80;;;;;;4864266;29;20942;-79
2021/04/28 11:12:02;;;;;;;3.80;3.50;;;20.60;6.70;;;;;;4902456;29;20466;-79
2021/04/28 11:14:46;;;;;;;7.47;2.87;;;20.70;5.60;;;;;;4911089;29;20464;-81
2021/04/28 11:17:25;;;;;;;3.07;2.80;;;20.80;7.60;;;;;;4910002;29;20457;-81
2021/04/28 11:19:55;;;;;;;4.10;3.43;;;20.80;8.60;;;;;;4900342;29;20966;-79
2021/04/28 11:22:28;;;;;;;5.17;3.67;;;20.80;19.90;;;;;;4901034;29;20458;-78
2021/04/28 11:25:06;;;;;;;5.00;4.17;;;20.80;8.00;;;;;;4899356;29;20513;-80
2021/04/28 11:28:02;;;;;;;3.43;3.10;;;20.80;7.50;;;;;;4901055;29;20477;-80
2021/04/28 11:30:44;;;;;;;3.43;2.70;;;20.80;8.30;;;;;;4908964;29;20559;-82
2021/04/28 11:33:34;;;;;;;4.00;3.37;;;20.80;8.40;;;;;;4913941;29;20474;-82
2021/04/28 11:36:15;;;;;;;3.07;2.50;;;20.80;8.00;;;;;;4901056;29;20454;-79
2021/04/28 11:38:44;;;;;;;3.50;2.80;;;20.90;8.50;;;;;;4901162;29;20493;-77
2021/04/28 11:41:14;;;;;;;6.57;2.83;;;20.80;19.30;;;;;;4895537;29;20533;-78
2021/04/28 11:43:47;;;;;;;4.70;3.30;;;20.90;10.00;;;;;;4892407;29;20818;-76
2021/04/28 11:46:17;;;;;;;4.33;2.90;;;20.90;9.80;;;;;;4896330;29;20985;-76
2021/04/28 11:48:45;;;;;;;3.50;3.20;;;20.80;8.40;;;;;;4900062;29;20485;-75
2021/04/28 11:51:17;;;;;;;2.93;2.63;;;20.90;19.90;;;;;;4913835;29;20469;-76
2021/04/28 11:53:46;;;;;;;3.70;2.53;;;20.90;9.90;;;;;;4901254;29;20517;-77
2021/04/28 11:56:43;;;;;;;2.97;2.67;;;21.10;10.80;;;;;;4900357;29;20475;-78
2021/04/28 11:59:20;;;;;;;5.80;2.90;;;21.10;11.00;;;;;;4865993;29;20544;-71
2021/04/28 12:01:47;;;;;;;2.57;2.37;;;21.10;12.20;;;;;;4904004;29;20468;-80
2021/04/28 12:04:15;;;;;;;2.90;2.70;;;21.20;15.10;;;;;;4905544;29;20880;-81
2021/04/28 12:06:44;;;;;;;2.43;2.23;;;21.30;14.10;;;;;;4902337;29;20460;-81
2021/04/28 12:09:16;;;;;;;4.32;2.95;;;21.40;14.50;;;;;;4907921;29;20620;-79
2021/04/28 12:11:47;;;;;;;5.43;3.37;;;21.50;14.60;;;;;;4904240;29;20228;-78
2021/04/28 12:14:24;;;;;;;2.80;2.60;;;21.50;14.70;;;;;;4901380;29;20550;-79
2021/04/28 12:16:55;;;;;;;2.77;2.47;;;21.50;13.80;;;;;;4906883;29;20463;-77
2021/04/28 12:19:25;;;;;;;3.47;3.00;;;21.50;14.20;;;;;;4907347;29;21060;-75
2021/04/28 12:21:55;;;;;;;3.10;2.63;;;21.50;15.60;;;;;;4905891;29;20465;-77
2021/04/28 12:24:28;;;;;;;2.63;2.33;;;21.60;16.00;;;;;;4903876;29;20449;-78
2021/04/28 12:27:09;;;;;;;2.93;2.73;;;21.60;15.70;;;;;;4904078;29;20882;-79
2021/04/28 12:29:37;;;;;;;5.90;2.40;;;21.80;16.10;;;;;;4900848;29;20471;-80
2021/04/28 12:32:06;;;;;;;2.80;2.60;;;21.80;18.10;;;;;;4899550;29;20483;-77
2021/04/28 12:34:35;;;;;;;2.53;2.33;;;21.90;19.30;;;;;;4905071;29;20458;-80
2021/04/28 12:37:20;;;;;;;2.57;2.37;;;21.90;18.20;;;;;;4906201;29;20466;-80
2021/04/28 12:39:56;;;;;;;5.10;2.57;;;21.80;17.40;;;;;;4905924;29;20493;-79
2021/04/28 12:42:28;;;;;;;3.20;2.80;;;21.90;16.60;;;;;;4911495;29;20515;-82
2021/04/28 12:44:56;;;;;;;2.20;2.00;;;21.90;16.10;;;;;;4905132;29;20474;-79
2021/04/28 12:47:25;;;;;;;3.87;2.53;;;21.80;16.30;;;;;;4905273;29;20509;-80
2021/04/28 12:50:04;;;;;;;2.27;2.07;;;21.70;14.70;;;;;;4903312;29;20558;-79
2021/04/28 12:52:36;;;;;;;2.07;1.93;;;21.80;14.70;;;;;;4905130;29;20459;-80
2021/04/28 12:55:22;;;;;;;2.37;2.17;;;21.80;15.50;;;;;;4913183;29;20469;-80
2021/04/28 12:57:55;;;;;;;3.87;2.03;;;21.90;15.60;;;;;;4903455;29;20496;-80
2021/04/28 13:00:24;;;;;;;4.93;2.90;;;21.90;15.70;;;;;;4905123;29;20457;-80
2021/04/28 13:03:11;;;;;;;2.90;1.60;;;21.90;14.30;;;;;;4906820;29;20490;-80
2021/04/28 13:05:40;;;;;;;4.83;2.20;;;21.80;14.20;;;;;;4905642;29;20837;-80
2021/04/28 13:08:22;;;;;;;4.70;1.80;;;21.80;12.90;;;;;;4903743;29;20461;-79